createdAt,value
2022-09-02T00:02:25.094Z,35.24
2022-09-02T00:04:52.849Z,35.72
2022-09-02T00:07:20.216Z,34.31
2022-09-02T00:09:47.839Z,34.64
2022-09-02T00:12:16.087Z,35.14
2022-09-02T00:14:43.407Z,34.13
2022-09-02T00:17:10.764Z,33.31
2022-09-02T00:19:38.439Z,34.14
2022-09-02T00:22:05.772Z,34.12
2022-09-02T00:24:33.235Z,33.83
2022-09-02T00:27:00.994Z,33.17
2022-09-02T00:29:28.909Z,33.47
2022-09-02T00:31:56.387Z,33.80
2022-09-02T00:34:24.356Z,33.13
2022-09-02T00:36:51.872Z,33.66
2022-09-02T00:39:19.606Z,33.83
2022-09-02T00:41:47.527Z,33.25
2022-09-02T00:44:17.420Z,32.88
2022-09-02T00:46:45.355Z,33.56
2022-09-02T00:49:19.018Z,33.83
2022-09-02T00:51:49.171Z,33.32
2022-09-02T00:54:20.045Z,33.15
2022-09-02T00:56:48.066Z,33.66
2022-09-02T00:59:24.257Z,34.33
2022-09-02T01:01:51.644Z,34.36
2022-09-02T01:04:19.336Z,33.53
2022-09-02T01:06:46.964Z,32.65
2022-09-02T01:09:15.711Z,32.69
2022-09-02T01:11:47.987Z,32.43
2022-09-02T01:14:16.243Z,33.25
2022-09-02T01:16:49.959Z,32.84
2022-09-02T01:19:25.287Z,32.49
2022-09-02T01:21:54.356Z,32.75
2022-09-02T01:24:34.725Z,32.26
2022-09-02T01:27:02.348Z,32.48
2022-09-02T01:29:29.918Z,32.94
2022-09-02T01:31:57.789Z,31.86
2022-09-02T01:34:26.379Z,32.37
2022-09-02T01:36:53.724Z,33.07
2022-09-02T01:39:21.449Z,32.60
2022-09-02T01:41:49.239Z,32.16
2022-09-02T01:44:17.733Z,32.46
2022-09-02T01:46:46.451Z,32.13
2022-09-02T01:49:14.228Z,32.24
2022-09-02T01:51:41.902Z,32.06
2022-09-02T01:54:09.365Z,32.61
2022-09-02T01:56:37.239Z,32.04
2022-09-02T01:59:07.789Z,32.12
2022-09-02T02:01:35.454Z,32.05
2022-09-02T02:04:04.284Z,32.31
2022-09-02T02:06:32.513Z,32.06
2022-09-02T02:09:00.103Z,31.96
2022-09-02T02:11:28.028Z,32.12
2022-09-02T02:13:56.356Z,32.25
2022-09-02T02:16:23.779Z,31.83
2022-09-02T02:18:51.481Z,31.74
2022-09-02T02:21:20.225Z,32.07
2022-09-02T02:23:48.511Z,32.08
2022-09-02T02:26:16.392Z,32.05
2022-09-02T02:28:44.053Z,32.49
2022-09-02T02:31:11.878Z,32.27
2022-09-02T02:33:39.688Z,32.59
2022-09-02T02:36:08.003Z,32.39
2022-09-02T02:38:36.911Z,31.64
2022-09-02T02:41:06.389Z,32.40
2022-09-02T02:43:39.525Z,32.53
2022-09-02T02:46:07.944Z,32.56
2022-09-02T02:48:36.855Z,32.48
2022-09-02T02:51:06.067Z,31.34
2022-09-02T02:53:36.192Z,32.37
2022-09-02T02:56:04.864Z,32.07
2022-09-02T02:58:32.468Z,32.49
2022-09-02T03:01:00.991Z,32.55
2022-09-02T03:03:29.715Z,32.72
2022-09-02T03:05:58.257Z,32.61
2022-09-02T03:08:26.971Z,32.70
2022-09-02T03:10:55.979Z,32.96
2022-09-02T03:13:24.146Z,32.81
2022-09-02T03:16:01.285Z,33.02
2022-09-02T03:18:28.933Z,32.96
2022-09-02T03:20:56.938Z,33.55
2022-09-02T03:23:24.326Z,34.30
2022-09-02T03:25:51.990Z,34.11
2022-09-02T03:28:23.465Z,32.55
2022-09-02T03:30:50.950Z,32.94
2022-09-02T03:33:18.868Z,33.31
2022-09-02T03:36:02.638Z,33.59
2022-09-02T03:38:50.936Z,34.60
2022-09-02T03:41:19.452Z,34.83
2022-09-02T03:43:47.448Z,33.96
2022-09-02T03:46:15.373Z,35.16
2022-09-02T03:48:43.944Z,35.62
2022-09-02T03:51:12.225Z,35.66
2022-09-02T03:53:39.941Z,35.74
2022-09-02T03:56:13.139Z,35.60
2022-09-02T03:58:40.780Z,35.78
2022-09-02T04:01:17.671Z,36.50
2022-09-02T04:03:46.440Z,37.22
2022-09-02T04:06:16.370Z,36.79
2022-09-02T04:08:45.045Z,36.09
2022-09-02T04:11:18.113Z,37.30
2022-09-02T04:13:46.754Z,37.45
2022-09-02T04:16:19.964Z,37.63
2022-09-02T04:18:47.730Z,37.16
2022-09-02T04:21:15.978Z,37.43
2022-09-02T04:23:49.231Z,38.59
2022-09-02T04:26:18.588Z,38.27
2022-09-02T04:28:47.700Z,38.24
2022-09-02T04:31:18.096Z,38.56
2022-09-02T04:33:46.659Z,39.48
2022-09-02T04:36:16.579Z,38.19
2022-09-02T04:38:44.760Z,37.81
2022-09-02T04:41:16.840Z,37.88
2022-09-02T04:43:45.128Z,38.66
2022-09-02T04:46:14.565Z,38.71
2022-09-02T04:48:44.208Z,39.17
2022-09-02T04:51:14.868Z,39.42
2022-09-02T04:53:43.951Z,38.89
2022-09-02T04:56:14.830Z,38.75
2022-09-02T04:58:44.491Z,38.62
2022-09-02T05:01:16.747Z,39.29
2022-09-02T05:03:45.551Z,39.26
2022-09-02T05:06:16.350Z,39.94
2022-09-02T05:08:46.593Z,39.79
2022-09-02T05:11:19.701Z,39.81
2022-09-02T05:13:51.421Z,39.31
2022-09-02T05:16:22.695Z,38.59
2022-09-02T05:18:51.597Z,40.27
2022-09-02T05:21:19.988Z,39.50
2022-09-02T05:23:48.312Z,40.65
2022-09-02T05:26:16.983Z,39.15
2022-09-02T05:28:44.694Z,37.88
2022-09-02T05:31:14.848Z,35.86
2022-09-02T05:33:44.594Z,38.60
2022-09-02T05:36:21.275Z,36.97
2022-09-02T05:38:49.688Z,36.73
2022-09-02T05:41:23.415Z,35.73
2022-09-02T05:43:53.803Z,35.43
2022-09-02T05:46:23.514Z,35.69
2022-09-02T05:49:08.860Z,36.21
2022-09-02T05:51:44.044Z,34.39
2022-09-02T05:54:17.021Z,34.66
2022-09-02T05:56:46.386Z,33.95
2022-09-02T05:59:15.366Z,34.10
2022-09-02T06:01:43.400Z,33.64
2022-09-02T06:04:11.119Z,33.79
2022-09-02T06:06:39.870Z,34.42
2022-09-02T06:09:10.152Z,33.74
2022-09-02T06:11:40.028Z,33.35
2022-09-02T06:14:08.883Z,33.76
2022-09-02T06:16:38.178Z,33.50
2022-09-02T06:19:06.933Z,35.12
2022-09-02T06:21:36.531Z,34.34
2022-09-02T06:24:08.328Z,32.73
2022-09-02T06:26:37.490Z,34.03
2022-09-02T06:29:06.070Z,32.86
2022-09-02T06:31:34.646Z,33.44
2022-09-02T06:34:03.734Z,33.82
2022-09-02T06:36:31.585Z,34.67
2022-09-02T06:39:00.937Z,32.30
2022-09-02T06:41:32.088Z,32.57
2022-09-02T06:44:02.776Z,32.39
2022-09-02T06:46:44.713Z,32.13
2022-09-02T06:49:12.611Z,31.81
2022-09-02T06:51:43.367Z,32.83
2022-09-02T06:54:14.400Z,34.03
2022-09-02T06:56:47.273Z,32.69
2022-09-02T06:59:18.776Z,32.36
2022-09-02T07:01:47.261Z,32.38
2022-09-02T07:04:34.992Z,32.24
2022-09-02T07:07:04.478Z,31.78
2022-09-02T07:09:32.251Z,31.83
2022-09-02T07:12:04.667Z,32.01
2022-09-02T07:14:40.689Z,32.36
2022-09-02T07:17:10.420Z,31.15
2022-09-02T07:19:38.744Z,31.31
2022-09-02T07:22:06.690Z,31.66
2022-09-02T07:24:37.072Z,32.40
2022-09-02T07:27:05.850Z,33.54
2022-09-02T07:29:34.824Z,31.43
2022-09-02T07:32:02.607Z,32.22
2022-09-02T07:34:30.436Z,31.02
2022-09-02T07:37:03.279Z,30.51
2022-09-02T07:39:32.976Z,31.40
2022-09-02T07:42:01.257Z,30.64
2022-09-02T07:44:48.867Z,31.43
2022-09-02T07:47:17.815Z,31.21
2022-09-02T07:52:33.708Z,31.92
2022-09-02T07:55:01.237Z,31.17
2022-09-02T07:57:29.103Z,31.13
2022-09-02T07:59:56.871Z,31.46
2022-09-02T08:02:25.226Z,31.81
2022-09-02T08:04:53.262Z,31.55
2022-09-02T08:07:24.222Z,31.26
2022-09-02T08:09:52.300Z,30.86
2022-09-02T08:12:22.167Z,31.07
2022-09-02T08:14:50.501Z,31.70
2022-09-02T08:17:17.930Z,31.67
2022-09-02T08:19:45.791Z,31.84
2022-09-02T08:22:13.152Z,31.69
2022-09-02T08:24:46.024Z,31.57
2022-09-02T08:27:13.623Z,31.57
2022-09-02T08:29:41.062Z,32.16
2022-09-02T08:32:08.470Z,32.84
2022-09-02T08:34:36.361Z,32.29
2022-09-02T08:37:03.775Z,31.72
2022-09-02T08:39:31.165Z,30.87
2022-09-02T08:42:08.581Z,31.43
2022-09-02T08:44:37.741Z,31.45
2022-09-02T08:47:06.840Z,32.11
2022-09-02T08:49:44.652Z,31.96
2022-09-02T08:52:21.081Z,31.70
2022-09-02T08:54:57.157Z,31.75
2022-09-02T08:57:27.031Z,31.03
2022-09-02T08:59:58.415Z,31.66
2022-09-02T09:03:15.338Z,31.87
2022-09-02T09:05:53.262Z,31.56
2022-09-02T09:08:43.701Z,31.57
2022-09-02T09:11:34.500Z,32.51
2022-09-02T09:14:42.474Z,31.51
2022-09-02T09:17:53.274Z,30.83
2022-09-02T09:20:25.283Z,31.29
2022-09-02T09:22:58.894Z,31.42
2022-09-02T09:25:31.509Z,31.18
2022-09-02T09:28:00.164Z,31.04
2022-09-02T09:30:28.614Z,32.18
2022-09-02T09:32:57.564Z,31.94
2022-09-02T09:35:24.933Z,30.08
2022-09-02T09:37:54.074Z,29.94
2022-09-02T09:40:21.494Z,30.21
2022-09-02T09:43:13.231Z,30.17
2022-09-02T09:45:46.380Z,30.18
2022-09-02T09:48:18.148Z,29.12
2022-09-02T09:50:46.445Z,29.36
2022-09-02T09:53:22.918Z,30.42
2022-09-02T09:56:06.856Z,29.63
2022-09-02T09:58:45.907Z,29.23
2022-09-02T10:01:25.952Z,29.32
2022-09-02T10:03:58.512Z,28.72
2022-09-02T10:06:32.176Z,29.53
2022-09-02T10:09:05.808Z,30.95
2022-09-02T10:11:35.772Z,30.71
2022-09-02T10:14:06.173Z,29.76
2022-09-02T10:16:52.452Z,29.84
2022-09-02T10:19:34.331Z,30.98
2022-09-02T10:22:38.499Z,30.38
2022-09-02T10:25:25.536Z,30.82
2022-09-02T10:28:04.997Z,30.75
2022-09-02T10:30:39.572Z,30.47
2022-09-02T10:33:25.099Z,29.83
2022-09-02T10:36:22.035Z,30.04
2022-09-02T10:38:52.111Z,29.91
2022-09-02T10:44:30.276Z,30.46
2022-09-02T10:47:04.415Z,30.17
2022-09-02T10:49:51.271Z,29.93
2022-09-02T10:52:43.083Z,30.55
2022-09-02T10:55:25.065Z,31.64
2022-09-02T10:57:59.420Z,30.76
2022-09-02T11:00:29.211Z,30.49
2022-09-02T11:03:02.345Z,29.55
2022-09-02T11:05:39.846Z,29.84
2022-09-02T11:08:11.959Z,30.36
2022-09-02T11:11:11.373Z,29.86
2022-09-02T11:13:56.839Z,29.28
2022-09-02T11:16:34.475Z,30.62
2022-09-02T11:19:11.119Z,29.32
2022-09-02T11:22:09.248Z,30.57
2022-09-02T11:25:00.603Z,30.13
2022-09-02T11:27:54.810Z,30.20
2022-09-02T11:30:26.835Z,28.90
2022-09-02T11:33:19.232Z,29.54
2022-09-02T11:35:46.921Z,29.06
2022-09-02T11:38:36.133Z,28.66
2022-09-02T11:41:44.999Z,29.20
2022-09-02T11:44:53.157Z,29.07
2022-09-02T11:47:26.952Z,29.67
2022-09-02T11:50:19.411Z,28.39
2022-09-02T11:53:05.733Z,28.94
2022-09-02T11:55:38.681Z,29.25
2022-09-02T11:58:06.319Z,29.54
2022-09-02T12:00:36.558Z,28.21
2022-09-02T12:03:11.835Z,29.45
2022-09-02T12:05:46.211Z,29.23
2022-09-02T12:08:35.655Z,28.25
2022-09-02T12:11:06.723Z,28.33
2022-09-02T12:13:37.287Z,28.72
2022-09-02T12:16:21.128Z,27.64
2022-09-02T12:18:54.606Z,28.16
2022-09-02T12:21:23.912Z,27.87
2022-09-02T12:23:52.490Z,28.46
2022-09-02T12:26:25.122Z,27.55
2022-09-02T12:28:54.941Z,27.12
2022-09-02T12:31:45.599Z,27.91
2022-09-02T12:34:25.481Z,27.91
2022-09-02T12:36:54.702Z,27.93
2022-09-02T12:39:27.976Z,28.12
2022-09-02T12:42:01.287Z,28.18
2022-09-02T12:45:01.082Z,27.66
2022-09-02T12:47:49.440Z,28.39
2022-09-02T12:50:24.010Z,28.58
2022-09-02T12:52:52.537Z,29.39
2022-09-02T12:55:29.440Z,29.36
2022-09-02T12:58:11.411Z,28.82
2022-09-02T13:01:10.770Z,28.30
2022-09-02T13:03:56.852Z,27.82
2022-09-02T13:06:58.346Z,28.82
2022-09-02T13:09:48.416Z,27.41
2022-09-02T13:12:43.994Z,28.00
2022-09-02T13:15:52.042Z,28.70
2022-09-02T13:18:44.687Z,30.55
2022-09-02T13:21:23.771Z,31.54
2022-09-02T13:24:18.947Z,27.99
2022-09-02T13:27:15.981Z,28.99
2022-09-02T13:30:03.702Z,28.44
2022-09-02T13:32:32.137Z,28.80
2022-09-02T13:35:03.614Z,29.41
2022-09-02T13:37:32.592Z,29.21
2022-09-02T13:40:04.172Z,29.59
2022-09-02T13:43:03.274Z,28.60
2022-09-02T13:45:34.785Z,28.84
2022-09-02T13:48:29.480Z,28.14
2022-09-02T13:51:00.104Z,27.67
2022-09-02T13:53:58.855Z,27.93
2022-09-02T13:56:28.467Z,27.36
2022-09-02T13:58:58.935Z,27.81
2022-09-02T14:01:35.211Z,28.13
2022-09-02T14:04:10.981Z,28.48
2022-09-02T14:06:41.057Z,28.45
2022-09-02T14:09:11.888Z,27.97
2022-09-02T14:11:42.283Z,28.40
2022-09-02T14:14:18.717Z,28.64
2022-09-02T14:16:46.038Z,28.65
2022-09-02T14:19:16.546Z,28.60
2022-09-02T14:21:53.465Z,29.47
2022-09-02T14:24:24.616Z,29.99
2022-09-02T14:26:53.740Z,29.18
2022-09-02T14:29:21.951Z,30.39
2022-09-02T14:32:09.792Z,29.53
2022-09-02T14:34:39.805Z,28.76
2022-09-02T14:37:32.605Z,28.91
2022-09-02T14:40:00.115Z,29.34
2022-09-02T14:42:29.396Z,28.72
2022-09-02T14:44:59.403Z,29.72
2022-09-02T14:47:28.238Z,30.22
2022-09-02T14:49:56.107Z,30.65
2022-09-02T14:52:28.290Z,30.55
2022-09-02T14:54:57.228Z,31.07
2022-09-02T14:57:28.523Z,30.38
2022-09-02T15:00:06.128Z,30.49
2022-09-02T15:02:34.717Z,30.17
2022-09-02T15:05:07.772Z,30.19
2022-09-02T15:07:35.119Z,30.75
2022-09-02T15:10:02.754Z,30.65
2022-09-02T15:12:32.562Z,31.25
2022-09-02T15:15:00.409Z,31.44
2022-09-02T15:17:29.474Z,30.92
2022-09-02T15:19:57.094Z,31.64
2022-09-02T15:22:25.187Z,31.54
2022-09-02T15:24:52.945Z,31.24
2022-09-02T15:27:21.721Z,31.64
2022-09-02T15:29:49.715Z,31.50
2022-09-02T15:32:26.811Z,31.63
2022-09-02T15:34:54.233Z,30.80
2022-09-02T15:37:21.961Z,30.94
2022-09-02T15:39:50.214Z,31.21
2022-09-02T15:42:18.293Z,31.98
2022-09-02T15:44:46.268Z,33.70
2022-09-02T15:47:13.671Z,34.11
2022-09-02T15:49:40.984Z,34.41
2022-09-02T15:52:08.811Z,34.51
2022-09-02T15:54:36.374Z,34.90
2022-09-02T15:57:03.778Z,35.61
2022-09-02T15:59:31.376Z,35.89
2022-09-02T16:01:59.340Z,36.10
2022-09-02T16:04:30.033Z,36.32
2022-09-02T16:06:57.601Z,36.87
2022-09-02T16:09:25.142Z,37.14
2022-09-02T16:11:54.113Z,37.48
2022-09-02T16:14:23.375Z,37.79
2022-09-02T16:16:54.708Z,38.06
2022-09-02T16:19:23.674Z,38.19
2022-09-02T16:21:51.658Z,38.55
2022-09-02T16:24:21.382Z,38.74
2022-09-02T16:26:49.536Z,38.78
2022-09-02T16:29:17.700Z,39.10
2022-09-02T16:32:01.772Z,39.07
2022-09-02T16:34:35.148Z,39.25
2022-09-02T16:37:02.530Z,39.46
2022-09-02T16:39:29.966Z,39.51
2022-09-02T16:41:58.197Z,39.73
2022-09-02T16:44:26.057Z,40.13
2022-09-02T16:46:53.658Z,39.97
2022-09-02T16:49:22.052Z,40.42
2022-09-02T16:51:57.820Z,40.23
2022-09-02T16:54:31.369Z,40.47
2022-09-02T16:57:00.752Z,40.54
2022-09-02T16:59:28.669Z,40.66
2022-09-02T17:01:56.058Z,40.61
2022-09-02T17:04:23.491Z,40.35
2022-09-02T17:06:51.083Z,40.42
2022-09-02T17:09:18.467Z,40.38
2022-09-02T17:11:45.826Z,40.38
2022-09-02T17:14:16.656Z,40.36
2022-09-02T17:16:49.515Z,40.37
2022-09-02T17:19:22.398Z,40.73
2022-09-02T17:21:51.851Z,41.05
2022-09-02T17:24:21.626Z,41.10
2022-09-02T17:26:50.649Z,40.95
2022-09-02T17:32:10.355Z,41.55
2022-09-02T17:34:37.638Z,41.32
2022-09-02T17:37:05.666Z,41.41
2022-09-02T17:39:36.301Z,41.51
2022-09-02T17:42:05.233Z,41.77
2022-09-02T17:44:38.723Z,42.06
2022-09-02T17:47:07.432Z,42.06
2022-09-02T17:49:39.123Z,42.10
2022-09-02T17:52:07.958Z,42.88
2022-09-02T17:54:36.776Z,42.92
2022-09-02T17:57:43.185Z,42.65
2022-09-02T18:00:12.282Z,43.04
2022-09-02T18:02:58.862Z,43.32
2022-09-02T18:05:46.395Z,43.17
2022-09-02T18:08:47.560Z,43.33
2022-09-02T18:11:15.038Z,43.25
2022-09-02T18:14:05.984Z,43.34
2022-09-02T18:16:38.185Z,43.49
2022-09-02T18:19:48.933Z,43.09
2022-09-02T18:22:35.832Z,43.55
2022-09-02T18:25:27.359Z,43.52
2022-09-02T18:28:17.327Z,43.84
2022-09-02T18:30:52.587Z,44.67
2022-09-02T18:33:31.061Z,44.76
2022-09-02T18:36:19.003Z,44.92
2022-09-02T18:38:53.771Z,45.06
2022-09-02T18:41:42.009Z,45.39
2022-09-02T18:44:28.503Z,45.86
2022-09-02T18:47:03.311Z,46.23
2022-09-02T18:49:33.655Z,46.52
2022-09-02T18:52:06.350Z,46.52
2022-09-02T18:54:44.192Z,46.81
2022-09-02T18:57:12.012Z,46.21
2022-09-02T18:59:55.189Z,46.53
2022-09-02T19:02:25.015Z,46.42
2022-09-02T19:04:52.439Z,46.29
2022-09-02T19:07:39.164Z,46.86
2022-09-02T19:10:08.785Z,47.06
2022-09-02T19:12:36.679Z,47.77
2022-09-02T19:15:09.407Z,47.53
2022-09-02T19:17:38.539Z,48.00
2022-09-02T19:20:07.587Z,48.16
2022-09-02T19:22:38.759Z,48.27
2022-09-02T19:25:10.525Z,48.11
2022-09-02T19:27:39.950Z,48.49
2022-09-02T19:30:12.523Z,47.66
2022-09-02T19:32:43.790Z,48.35
2022-09-02T19:35:16.563Z,48.70
2022-09-02T19:37:51.176Z,48.79
2022-09-02T19:40:22.316Z,49.16
2022-09-02T19:42:51.986Z,48.88
2022-09-02T19:45:21.542Z,48.91
2022-09-02T19:48:08.824Z,49.00
2022-09-02T19:50:42.767Z,49.26
2022-09-02T19:53:15.948Z,49.66
2022-09-02T19:55:43.595Z,50.05
2022-09-02T19:58:11.143Z,50.22
2022-09-02T20:00:42.236Z,50.67
2022-09-02T20:03:11.346Z,50.69
2022-09-02T20:05:40.387Z,50.84
2022-09-02T20:08:09.129Z,50.98
2022-09-02T20:10:38.313Z,51.06
2022-09-02T20:13:06.818Z,51.32
2022-09-02T20:15:38.115Z,51.37
2022-09-02T20:18:10.184Z,51.57
2022-09-02T20:20:37.898Z,51.67
2022-09-02T20:23:17.648Z,51.72
2022-09-02T20:26:04.511Z,52.33
2022-09-02T20:29:09.567Z,52.28
2022-09-02T20:32:14.945Z,52.72
2022-09-02T20:34:52.209Z,52.91
2022-09-02T20:37:36.897Z,53.09
2022-09-02T20:40:27.087Z,53.21
2022-09-02T20:43:06.375Z,53.20
2022-09-02T20:45:39.141Z,53.29
2022-09-02T20:48:29.999Z,53.34
2022-09-02T20:51:08.252Z,53.51
2022-09-02T20:54:00.265Z,53.60
2022-09-02T20:56:29.992Z,53.66
2022-09-02T20:59:10.494Z,53.89
2022-09-02T21:01:47.386Z,53.69
2022-09-02T21:04:24.059Z,53.77
2022-09-02T21:07:01.519Z,53.68
2022-09-02T21:09:39.840Z,53.95
2022-09-02T21:12:20.515Z,54.08
2022-09-02T21:14:52.936Z,53.99
2022-09-02T21:17:21.546Z,54.43
2022-09-02T21:19:55.583Z,54.08
2022-09-02T21:22:32.423Z,54.27
2022-09-02T21:25:22.750Z,54.29
2022-09-02T21:27:58.766Z,54.38
2022-09-02T21:30:28.182Z,54.68
2022-09-02T21:33:03.369Z,55.12
2022-09-02T21:35:50.659Z,55.10
2022-09-02T21:38:38.482Z,55.03
2022-09-02T21:41:27.107Z,55.20
2022-09-02T21:44:19.430Z,55.51
2022-09-02T21:47:05.941Z,55.46
2022-09-02T21:49:55.124Z,55.47
2022-09-02T21:52:52.178Z,55.50
2022-09-02T21:55:35.458Z,55.31
2022-09-02T21:58:15.184Z,55.72
2022-09-02T22:00:47.239Z,55.56
2022-09-02T22:03:24.625Z,55.78
2022-09-02T22:05:57.109Z,55.94
2022-09-02T22:08:25.579Z,55.59
2022-09-02T22:11:15.051Z,55.69
2022-09-02T22:13:42.688Z,55.71
2022-09-02T22:16:13.098Z,55.72
2022-09-02T22:18:49.619Z,56.00
2022-09-02T22:21:48.626Z,55.81
2022-09-02T22:24:22.247Z,55.98
2022-09-02T22:27:06.288Z,55.77
2022-09-02T22:29:44.022Z,55.95
2022-09-02T22:32:14.461Z,55.74
2022-09-02T22:34:49.494Z,56.08
2022-09-02T22:37:22.279Z,56.34
2022-09-02T22:39:56.080Z,56.49
2022-09-02T22:42:36.707Z,56.63
2022-09-02T22:45:27.631Z,56.64
2022-09-02T22:48:32.325Z,56.43
2022-09-02T22:51:23.511Z,56.58
2022-09-02T22:53:51.189Z,56.66
2022-09-02T22:56:52.788Z,56.60
2022-09-02T22:59:39.035Z,56.60
2022-09-02T23:02:22.283Z,56.53
2022-09-02T23:04:58.835Z,56.53
2022-09-02T23:07:26.166Z,56.61
2022-09-02T23:09:58.995Z,56.72
2022-09-02T23:12:42.628Z,56.56
2022-09-02T23:15:23.590Z,56.69
2022-09-02T23:18:10.428Z,57.23
2022-09-02T23:20:48.300Z,57.03
2022-09-02T23:23:38.785Z,57.01
2022-09-02T23:26:22.959Z,57.00
2022-09-02T23:29:01.514Z,57.10
2022-09-02T23:31:32.329Z,57.24
2022-09-02T23:34:36.139Z,57.14
2022-09-02T23:37:34.935Z,57.09
2022-09-02T23:40:19.215Z,56.99
2022-09-02T23:42:47.367Z,57.25
2022-09-02T23:45:26.385Z,57.08
2022-09-02T23:48:04.591Z,57.00
2022-09-02T23:50:35.837Z,57.18
2022-09-02T23:53:12.764Z,57.25
2022-09-02T23:55:49.300Z,57.23
2022-09-02T23:58:23.742Z,57.05
